Time;durP1;ratioP1;P1;durP2;ratioP2;P2;SDS_P1;SDS_P2;PMS_P1;PMS_P2;Temp;Humidity;BMP_temperature;BMP_pressure;BME280_temperature;BME280_humidity;BME280_pressure;Samples;Min_cycle;Max_cycle;Signal;HPM_P1;HPM_P2
2023/10/05 00:03:51;;;;;;;3.07;2.60;;;10.20;99.90;;;;;;4981242;28;20464;-67
2023/10/05 00:06:23;;;;;;;2.43;2.20;;;10.20;99.90;;;;;;5017970;28;20464;-67
2023/10/05 00:08:50;;;;;;;3.27;2.70;;;10.20;99.90;;;;;;5019800;28;20530;-67
2023/10/05 00:11:23;;;;;;;3.40;2.60;;;10.10;99.90;;;;;;5014741;28;20460;-66
2023/10/05 00:13:53;;;;;;;4.20;2.90;;;10.10;99.90;;;;;;5011804;28;20438;-67
2023/10/05 00:16:22;;;;;;;3.33;2.70;;;10.10;99.90;;;;;;5021633;28;20842;-67
2023/10/05 00:18:52;;;;;;;5.17;2.93;;;10.10;99.90;;;;;;5019098;28;20436;-66
2023/10/05 00:21:19;;;;;;;3.77;3.13;;;10.10;99.90;;;;;;5025452;28;20455;-66
2023/10/05 00:23:56;;;;;;;6.20;3.17;;;10.10;99.90;;;;;;5012218;28;21020;-67
2023/10/05 00:26:27;;;;;;;4.83;2.93;;;10.20;99.90;;;;;;5013570;28;20462;-67
2023/10/05 00:29:00;;;;;;;6.20;3.00;;;10.10;99.90;;;;;;5012855;28;20551;-67
2023/10/05 00:31:26;;;;;;;7.40;5.80;;;10.10;99.90;;;;;;5012898;28;20595;-66
2023/10/05 00:33:55;;;;;;;5.13;3.93;;;10.10;99.90;;;;;;5012715;28;20561;-66
2023/10/05 00:36:23;;;;;;;3.63;2.80;;;10.10;99.90;;;;;;5014062;28;20205;-68
2023/10/05 00:38:49;;;;;;;5.10;3.20;;;10.00;99.90;;;;;;5014497;28;20441;-67
2023/10/05 00:41:15;;;;;;;7.53;3.20;;;10.00;99.90;;;;;;5011992;28;20533;-67
2023/10/05 00:43:40;;;;;;;6.70;3.30;;;10.00;99.90;;;;;;5013973;28;20254;-66
2023/10/05 00:46:07;;;;;;;5.43;2.90;;;10.00;99.90;;;;;;5016119;28;20233;-66
2023/10/05 00:48:35;;;;;;;5.33;3.07;;;10.00;99.90;;;;;;5014039;28;20209;-66
2023/10/05 00:51:23;;;;;;;6.13;3.03;;;10.10;99.90;;;;;;5011402;28;21042;-66
2023/10/05 00:53:50;;;;;;;3.83;3.00;;;10.10;99.90;;;;;;5008891;28;20473;-66
2023/10/05 00:56:16;;;;;;;6.53;2.93;;;10.10;99.90;;;;;;5013083;28;20802;-67
2023/10/05 00:58:44;;;;;;;6.87;2.90;;;10.10;99.90;;;;;;5012905;28;20435;-67
2023/10/05 01:01:27;;;;;;;6.77;3.47;;;10.10;99.90;;;;;;5010652;28;20852;-66
2023/10/05 01:06:40;;;;;;;5.17;2.70;;;10.00;99.90;;;;;;5014746;28;20460;-66
2023/10/05 01:09:56;;;;;;;5.63;4.60;;;10.00;99.90;;;;;;5019257;28;20465;-66
2023/10/05 01:12:02;;;;;;;3.03;2.70;;;10.00;99.90;;;;;;5009585;28;20450;-66
2023/10/05 01:14:50;;;;;;;4.40;2.83;;;10.00;99.90;;;;;;5011270;28;20981;-66
2023/10/05 01:17:20;;;;;;;4.13;3.13;;;10.10;99.90;;;;;;5019484;28;20478;-66
2023/10/05 01:19:46;;;;;;;4.90;2.90;;;10.10;99.90;;;;;;5021381;28;20440;-66
2023/10/05 01:22:16;;;;;;;5.97;2.33;;;10.10;99.90;;;;;;5017598;28;20445;-66
2023/10/05 01:24:41;;;;;;;6.97;2.70;;;10.10;99.90;;;;;;5002883;28;20998;-66
2023/10/05 01:27:08;;;;;;;4.10;2.60;;;10.10;99.90;;;;;;5011610;28;20461;-65
2023/10/05 01:29:34;;;;;;;4.90;2.83;;;10.00;99.90;;;;;;5010254;28;20215;-67
2023/10/05 01:31:59;;;;;;;3.27;2.70;;;10.00;99.90;;;;;;5012647;28;20537;-66
2023/10/05 01:34:25;;;;;;;5.67;3.57;;;10.00;99.90;;;;;;5009725;28;20179;-66
2023/10/05 01:36:53;;;;;;;2.50;2.30;;;10.00;99.90;;;;;;5012821;28;20207;-67
2023/10/05 01:39:20;;;;;;;5.10;3.30;;;10.00;99.90;;;;;;5012762;28;20240;-67
2023/10/05 01:41:48;;;;;;;4.23;2.83;;;10.00;99.90;;;;;;5012748;28;20937;-67
2023/10/05 01:44:14;;;;;;;6.97;2.90;;;10.00;99.90;;;;;;5011666;28;20441;-64
2023/10/05 01:46:40;;;;;;;5.37;2.90;;;10.00;99.90;;;;;;5020915;28;20484;-67
2023/10/05 01:49:06;;;;;;;4.47;2.33;;;10.00;99.90;;;;;;5011815;28;20457;-67
2023/10/05 01:51:31;;;;;;;4.00;2.50;;;10.00;99.90;;;;;;5010921;28;20963;-67
2023/10/05 01:54:05;;;;;;;5.03;3.13;;;10.00;99.90;;;;;;5010432;28;20605;-66
2023/10/05 01:56:32;;;;;;;3.10;2.80;;;9.90;99.90;;;;;;5008196;28;20199;-66
2023/10/05 01:59:00;;;;;;;2.87;2.60;;;10.00;99.90;;;;;;5010813;28;20463;-66
2023/10/05 02:01:28;;;;;;;5.77;3.50;;;10.00;99.90;;;;;;5009019;28;20448;-67
2023/10/05 02:03:56;;;;;;;3.50;2.70;;;9.90;99.90;;;;;;5017620;28;20502;-67
2023/10/05 02:06:22;;;;;;;4.30;2.83;;;9.90;99.90;;;;;;5015319;28;20966;-66
2023/10/05 02:08:47;;;;;;;4.50;3.00;;;9.90;99.90;;;;;;5018981;28;20458;-69
2023/10/05 02:11:17;;;;;;;5.80;3.30;;;9.90;99.90;;;;;;5017943;28;20699;-67
2023/10/05 02:13:43;;;;;;;5.80;3.10;;;9.90;99.90;;;;;;5009555;28;20225;-67
2023/10/05 02:16:16;;;;;;;3.80;2.93;;;9.90;99.90;;;;;;5018713;28;20837;-66
2023/10/05 02:18:41;;;;;;;4.80;3.40;;;9.90;99.90;;;;;;5019042;28;20438;-66
2023/10/05 02:21:17;;;;;;;7.97;3.77;;;9.80;99.90;;;;;;5028451;28;20421;-68
2023/10/05 02:23:44;;;;;;;4.80;3.20;;;9.70;99.90;;;;;;5013060;28;20585;-67
2023/10/05 02:26:33;;;;;;;6.00;4.00;;;9.70;99.90;;;;;;5011815;28;20461;-66
2023/10/05 02:28:59;;;;;;;3.90;3.10;;;9.70;99.90;;;;;;5010679;28;20461;-67
2023/10/05 02:31:28;;;;;;;4.53;3.50;;;9.70;99.90;;;;;;5011641;28;20965;-67
2023/10/05 02:33:55;;;;;;;3.63;3.33;;;9.60;99.90;;;;;;5002405;28;20429;-66
2023/10/05 02:36:21;;;;;;;5.03;2.63;;;9.50;99.90;;;;;;5011088;28;20927;-67
2023/10/05 02:38:53;;;;;;;3.33;2.43;;;9.50;99.90;;;;;;5019232;28;20428;-67
2023/10/05 02:41:30;;;;;;;3.63;3.03;;;9.50;99.90;;;;;;5018089;28;20189;-66
2023/10/05 02:43:58;;;;;;;4.03;2.73;;;9.50;99.90;;;;;;5013745;28;20445;-66
2023/10/05 02:46:24;;;;;;;5.77;3.07;;;9.50;99.90;;;;;;5009638;28;20606;-66
2023/10/05 02:48:50;;;;;;;4.60;2.90;;;9.50;99.90;;;;;;5011080;28;20843;-66
2023/10/05 02:51:18;;;;;;;2.90;2.40;;;9.50;99.90;;;;;;5006946;28;20461;-66
2023/10/05 02:53:45;;;;;;;3.60;3.00;;;9.50;99.90;;;;;;5009302;28;20859;-66
2023/10/05 02:56:20;;;;;;;6.10;2.87;;;9.50;99.90;;;;;;5006577;28;20462;-66
2023/10/05 02:58:48;;;;;;;4.33;2.97;;;9.40;99.90;;;;;;5003544;28;20437;-67
2023/10/05 03:01:15;;;;;;;3.40;3.10;;;9.50;99.90;;;;;;5020481;28;20918;-67
2023/10/05 03:03:43;;;;;;;4.93;2.80;;;9.50;99.90;;;;;;5015176;28;20425;-67
2023/10/05 03:06:10;;;;;;;6.50;3.13;;;9.50;99.90;;;;;;5010792;28;20465;-66
2023/10/05 03:08:39;;;;;;;3.43;2.63;;;9.50;99.90;;;;;;5011010;28;20468;-66
2023/10/05 03:11:08;;;;;;;4.53;3.90;;;9.50;99.90;;;;;;5019493;28;20487;-67
2023/10/05 03:13:38;;;;;;;6.83;5.03;;;9.60;99.90;;;;;;5028310;28;20429;-66
2023/10/05 03:16:10;;;;;;;4.03;3.43;;;9.60;99.90;;;;;;5017994;28;20909;-66
2023/10/05 03:18:38;;;;;;;4.50;4.10;;;9.60;99.90;;;;;;5012033;28;20859;-67
2023/10/05 03:21:14;;;;;;;3.83;3.23;;;9.70;99.90;;;;;;5011391;28;20846;-67
2023/10/05 03:23:41;;;;;;;4.73;2.90;;;9.70;99.90;;;;;;5013118;28;20867;-67
2023/10/05 03:26:11;;;;;;;5.10;3.53;;;9.70;99.90;;;;;;5014634;28;20468;-67
2023/10/05 03:28:37;;;;;;;5.23;2.87;;;9.80;99.90;;;;;;5012773;28;20459;-67
2023/10/05 03:31:12;;;;;;;2.80;2.40;;;9.80;99.90;;;;;;5014520;28;20446;-67
2023/10/05 03:33:39;;;;;;;4.90;3.47;;;9.80;99.90;;;;;;5008810;28;20434;-67
2023/10/05 03:36:14;;;;;;;4.03;3.00;;;9.80;99.90;;;;;;5012326;28;20448;-67
2023/10/05 03:38:41;;;;;;;6.33;3.90;;;9.90;99.90;;;;;;5004414;28;20437;-66
2023/10/05 03:41:13;;;;;;;4.60;4.20;;;9.80;99.90;;;;;;5018159;28;20452;-66
2023/10/05 03:43:39;;;;;;;3.67;3.37;;;9.80;99.90;;;;;;5006352;28;21019;-67
2023/10/05 03:46:08;;;;;;;4.33;3.07;;;9.90;99.90;;;;;;5015205;28;20453;-67
2023/10/05 03:48:42;;;;;;;8.50;2.97;;;9.90;99.90;;;;;;5023785;28;20214;-67
2023/10/05 03:51:17;;;;;;;4.33;3.20;;;9.90;99.90;;;;;;5013906;28;20808;-67
2023/10/05 03:53:51;;;;;;;4.87;3.30;;;9.90;99.90;;;;;;5011115;28;20468;-67
2023/10/05 03:56:19;;;;;;;3.50;2.70;;;9.80;99.90;;;;;;5012166;28;20453;-69
2023/10/05 03:58:47;;;;;;;5.60;3.63;;;9.80;99.90;;;;;;5016943;28;20502;-68
2023/10/05 04:01:13;;;;;;;5.70;3.70;;;9.80;99.90;;;;;;5013543;28;20437;-69
2023/10/05 04:03:40;;;;;;;4.20;3.57;;;9.80;99.90;;;;;;5014301;28;20496;-69
2023/10/05 04:06:18;;;;;;;6.33;4.33;;;9.90;99.90;;;;;;5013182;28;20293;-69
2023/10/05 04:08:47;;;;;;;6.80;3.53;;;9.90;99.90;;;;;;5012844;28;20552;-68
2023/10/05 04:11:13;;;;;;;4.47;3.00;;;9.90;99.90;;;;;;5016332;28;20455;-66
2023/10/05 04:13:38;;;;;;;4.00;3.43;;;9.90;99.90;;;;;;5012978;28;20429;-67
2023/10/05 04:16:17;;;;;;;5.57;3.67;;;9.90;99.90;;;;;;5013349;28;20481;-67
2023/10/05 04:18:46;;;;;;;8.00;3.50;;;9.90;99.90;;;;;;5005062;28;20672;-68
2023/10/05 04:21:13;;;;;;;3.97;3.37;;;9.90;99.90;;;;;;5014198;28;20567;-67
2023/10/05 04:23:40;;;;;;;6.03;2.97;;;9.80;99.90;;;;;;5020663;28;20954;-66
2023/10/05 04:26:08;;;;;;;7.63;3.00;;;9.80;99.90;;;;;;5014316;28;20465;-66
2023/10/05 04:28:35;;;;;;;8.00;2.80;;;9.80;99.90;;;;;;5013678;28;20622;-67
2023/10/05 04:31:06;;;;;;;7.43;3.20;;;9.80;99.90;;;;;;5012190;28;20441;-66
2023/10/05 04:33:31;;;;;;;7.20;3.30;;;9.90;99.90;;;;;;5010491;28;20444;-69
2023/10/05 04:35:57;;;;;;;3.77;2.93;;;9.90;99.90;;;;;;5012239;28;20457;-68
2023/10/05 04:38:25;;;;;;;5.10;3.57;;;9.90;99.90;;;;;;5012695;28;20187;-66
2023/10/05 04:40:51;;;;;;;3.97;3.00;;;9.90;99.90;;;;;;5013001;28;20198;-67
2023/10/05 04:43:19;;;;;;;4.43;3.60;;;9.90;99.90;;;;;;5012189;28;20525;-66
2023/10/05 04:45:46;;;;;;;4.37;2.73;;;9.90;99.90;;;;;;5013028;28;20496;-67
2023/10/05 04:48:12;;;;;;;5.23;3.63;;;9.80;99.90;;;;;;5014828;28;20461;-66
2023/10/05 04:50:40;;;;;;;3.97;3.67;;;9.90;99.90;;;;;;5013685;28;20429;-65
2023/10/05 04:53:09;;;;;;;4.03;2.83;;;9.90;99.90;;;;;;5012440;28;20496;-67
2023/10/05 04:55:46;;;;;;;4.27;3.87;;;9.80;99.90;;;;;;5013059;28;20523;-66
2023/10/05 04:58:21;;;;;;;3.13;2.90;;;9.90;99.90;;;;;;5008912;28;20433;-67
2023/10/05 05:06:00;;;;;;;9.20;3.77;;;9.90;99.90;;;;;;5009014;28;20202;-67
2023/10/05 05:08:26;;;;;;;4.23;2.90;;;9.90;99.90;;;;;;5021843;28;20463;-67
2023/10/05 05:10:52;;;;;;;3.40;2.90;;;9.90;99.90;;;;;;5024083;28;21142;-67
2023/10/05 05:13:20;;;;;;;4.27;3.17;;;9.90;99.90;;;;;;5011730;28;21004;-67
2023/10/05 05:15:46;;;;;;;4.07;3.47;;;9.90;99.90;;;;;;5033889;22;20266;-73
2023/10/05 05:18:15;;;;;;;6.63;4.80;;;9.90;99.90;;;;;;4988865;28;20443;-74
2023/10/05 05:20:41;;;;;;;7.37;4.60;;;10.00;99.90;;;;;;4977266;28;20180;-74
2023/10/05 05:23:07;;;;;;;4.03;3.63;;;9.90;99.90;;;;;;4988942;28;20447;-74
2023/10/05 05:25:33;;;;;;;6.63;4.33;;;9.90;99.90;;;;;;4987047;28;20458;-74
2023/10/05 05:28:01;;;;;;;8.60;4.37;;;9.90;99.90;;;;;;4974573;28;20231;-74
2023/10/05 05:30:29;;;;;;;6.90;5.23;;;9.90;99.90;;;;;;4974090;28;20189;-74
2023/10/05 05:32:54;;;;;;;8.47;5.00;;;9.90;99.90;;;;;;4976180;28;20447;-73
2023/10/05 05:35:20;;;;;;;7.07;6.27;;;9.90;99.90;;;;;;4974958;28;20427;-74
2023/10/05 05:37:46;;;;;;;6.23;4.53;;;10.00;99.90;;;;;;4974714;28;20164;-74
2023/10/05 05:40:12;;;;;;;4.37;3.43;;;10.00;99.90;;;;;;4968281;28;20215;-74
2023/10/05 05:42:39;;;;;;;6.40;4.40;;;10.00;99.90;;;;;;4972965;28;20193;-74
2023/10/05 05:45:15;;;;;;;4.60;4.20;;;10.00;99.90;;;;;;4979550;28;20456;-73
2023/10/05 05:47:45;;;;;;;4.43;3.60;;;10.00;99.90;;;;;;4974637;28;20443;-74
2023/10/05 05:50:17;;;;;;;4.60;3.37;;;10.10;99.90;;;;;;4974571;28;21007;-74
2023/10/05 05:52:47;;;;;;;3.60;3.30;;;10.10;99.90;;;;;;4977015;28;20437;-74
2023/10/05 05:55:20;;;;;;;7.70;4.43;;;10.10;99.90;;;;;;4986755;28;20427;-74
2023/10/05 05:57:46;;;;;;;7.10;4.67;;;10.20;99.90;;;;;;4974021;28;21003;-74
2023/10/05 06:00:12;;;;;;;5.33;4.27;;;10.20;99.90;;;;;;4972510;28;20566;-74
2023/10/05 06:02:40;;;;;;;4.83;3.80;;;10.20;99.90;;;;;;4978718;28;20207;-74
2023/10/05 06:05:09;;;;;;;5.93;3.80;;;10.30;99.90;;;;;;4973039;28;20506;-74
2023/10/05 06:07:39;;;;;;;4.77;4.30;;;10.30;99.90;;;;;;4973733;28;20876;-74
2023/10/05 06:10:12;;;;;;;5.60;4.00;;;10.30;99.90;;;;;;4972055;28;20854;-74
2023/10/05 06:12:39;;;;;;;8.67;4.03;;;10.30;99.90;;;;;;4977074;28;20854;-73
2023/10/05 06:15:05;;;;;;;8.83;4.40;;;10.30;99.90;;;;;;4968825;28;20498;-77
2023/10/05 06:17:30;;;;;;;5.77;3.77;;;10.30;99.90;;;;;;4975683;28;20860;-74
2023/10/05 06:19:56;;;;;;;4.27;3.20;;;10.40;99.90;;;;;;4979620;28;21559;-74
2023/10/05 06:22:22;;;;;;;7.70;4.37;;;10.30;99.90;;;;;;4974690;28;20191;-73
2023/10/05 06:24:48;;;;;;;7.87;4.07;;;10.60;99.90;;;;;;4969274;28;20544;-74
2023/10/05 06:27:13;;;;;;;5.47;4.83;;;10.90;99.90;;;;;;4971565;28;20206;-73
2023/10/05 06:29:39;;;;;;;14.93;5.80;;;10.80;99.90;;;;;;4971728;28;20204;-73
2023/10/05 06:32:04;;;;;;;15.37;4.67;;;10.90;99.90;;;;;;4972929;28;20574;-74
2023/10/05 06:34:30;;;;;;;4.33;3.53;;;11.00;99.90;;;;;;4971440;28;20176;-74
2023/10/05 06:36:56;;;;;;;4.43;3.43;;;11.10;99.90;;;;;;4977428;28;20295;-73
2023/10/05 06:39:27;;;;;;;6.10;4.20;;;11.10;99.90;;;;;;4973728;28;20448;-75
2023/10/05 06:41:53;;;;;;;7.47;3.93;;;11.20;99.90;;;;;;4970814;28;20184;-74
2023/10/05 06:44:19;;;;;;;6.53;3.70;;;11.30;99.90;;;;;;4972499;28;20439;-73
2023/10/05 06:46:44;;;;;;;6.03;4.70;;;11.40;99.90;;;;;;4971937;28;21074;-73
2023/10/05 06:49:10;;;;;;;7.23;5.10;;;11.40;99.90;;;;;;4973409;28;20666;-73
2023/10/05 06:51:42;;;;;;;5.20;3.80;;;11.80;99.90;;;;;;4971866;28;20185;-73
2023/10/05 06:54:08;;;;;;;7.10;4.30;;;12.20;99.90;;;;;;4971408;28;20243;-73
2023/10/05 06:56:33;;;;;;;4.47;3.53;;;12.50;99.90;;;;;;4970796;28;20979;-73
2023/10/05 06:58:59;;;;;;;9.27;3.80;;;12.60;99.90;;;;;;4978138;28;20231;-73
2023/10/05 07:01:24;;;;;;;10.80;4.80;;;12.60;99.90;;;;;;4970509;28;20198;-73
2023/10/05 07:03:52;;;;;;;5.90;3.97;;;12.70;99.90;;;;;;4976538;28;20190;-73
2023/10/05 07:06:24;;;;;;;12.50;4.83;;;12.70;99.90;;;;;;4981377;28;20749;-73
2023/10/05 07:08:52;;;;;;;7.93;3.77;;;12.70;99.90;;;;;;4978801;28;20466;-72
2023/10/05 07:11:18;;;;;;;10.17;4.67;;;12.80;99.90;;;;;;4969825;28;20494;-73
2023/10/05 07:13:44;;;;;;;12.63;5.23;;;12.80;99.90;;;;;;4978379;28;20435;-73
2023/10/05 07:16:09;;;;;;;9.00;4.27;;;13.20;99.90;;;;;;4969812;28;20470;-73
2023/10/05 07:18:35;;;;;;;5.33;3.90;;;12.90;99.90;;;;;;4973722;28;20549;-73
2023/10/05 07:21:04;;;;;;;8.93;4.43;;;13.00;99.90;;;;;;4969555;28;20263;-72
2023/10/05 07:23:29;;;;;;;7.00;4.83;;;13.10;99.90;;;;;;4970376;28;20292;-74
2023/10/05 07:25:55;;;;;;;7.77;4.13;;;13.10;99.90;;;;;;4970087;28;20964;-73
2023/10/05 07:28:21;;;;;;;12.17;4.50;;;13.20;99.90;;;;;;4970107;28;20208;-73
2023/10/05 07:30:46;;;;;;;9.87;5.87;;;13.40;99.90;;;;;;4972321;28;20230;-74
2023/10/05 07:33:12;;;;;;;7.40;4.50;;;13.50;99.90;;;;;;4970618;28;20184;-74
2023/10/05 07:35:38;;;;;;;5.60;4.17;;;13.70;99.90;;;;;;4972372;28;20242;-73
2023/10/05 07:38:06;;;;;;;6.43;5.10;;;13.90;99.90;;;;;;4972782;28;20191;-73
2023/10/05 07:40:35;;;;;;;9.23;4.40;;;14.00;99.90;;;;;;4972696;28;20439;-74
2023/10/05 07:43:02;;;;;;;7.00;4.80;;;14.30;99.90;;;;;;4974410;28;20444;-74
2023/10/05 07:45:27;;;;;;;8.80;4.47;;;14.80;99.90;;;;;;4969393;28;20507;-74
2023/10/05 07:47:53;;;;;;;7.53;4.57;;;14.70;99.90;;;;;;4979846;28;20519;-75
2023/10/05 07:50:18;;;;;;;11.03;5.10;;;14.80;99.90;;;;;;4972006;28;20234;-74
2023/10/05 07:52:44;;;;;;;6.97;4.57;;;15.10;99.90;;;;;;4971154;28;20267;-74
2023/10/05 07:55:10;;;;;;;5.73;4.37;;;15.10;99.90;;;;;;4971687;28;20188;-73
2023/10/05 07:57:35;;;;;;;7.20;5.17;;;15.50;99.90;;;;;;4977995;28;20210;-74
2023/10/05 08:00:01;;;;;;;5.60;4.50;;;15.80;99.90;;;;;;4971705;28;20444;-74
2023/10/05 08:02:26;;;;;;;8.53;5.60;;;16.00;99.90;;;;;;4967445;28;20212;-73
2023/10/05 08:04:52;;;;;;;11.13;4.87;;;16.10;99.90;;;;;;4970388;28;20559;-74
2023/10/05 08:07:17;;;;;;;7.13;5.03;;;16.10;99.90;;;;;;4977902;28;20214;-74
2023/10/05 08:09:43;;;;;;;10.10;4.67;;;16.40;99.90;;;;;;4971805;28;20212;-74
2023/10/05 08:12:11;;;;;;;8.40;4.83;;;16.50;99.90;;;;;;4971889;28;20184;-74
2023/10/05 08:14:37;;;;;;;7.93;5.10;;;16.60;99.90;;;;;;4973912;28;20234;-74
2023/10/05 08:17:03;;;;;;;6.60;4.70;;;16.70;99.90;;;;;;4972703;28;20478;-74
2023/10/05 08:19:29;;;;;;;6.07;4.70;;;16.70;99.90;;;;;;4976612;28;20638;-75
2023/10/05 08:21:55;;;;;;;6.83;4.57;;;17.00;99.90;;;;;;4969668;28;20518;-74
2023/10/05 08:24:24;;;;;;;7.00;5.77;;;17.40;99.90;;;;;;4968603;28;20514;-74
2023/10/05 08:26:56;;;;;;;9.90;4.10;;;17.70;99.90;;;;;;4975567;28;20454;-75
2023/10/05 08:29:22;;;;;;;8.67;4.57;;;17.80;99.90;;;;;;4972303;28;21028;-75
2023/10/05 08:31:49;;;;;;;5.10;3.60;;;17.80;99.90;;;;;;4970373;28;20439;-74
2023/10/05 08:34:20;;;;;;;5.93;4.00;;;18.00;99.90;;;;;;4971337;28;20443;-74
2023/10/05 08:36:49;;;;;;;6.20;4.43;;;18.10;99.90;;;;;;4979293;28;20533;-73
2023/10/05 08:39:16;;;;;;;6.43;4.10;;;18.20;99.90;;;;;;4973102;28;20526;-73
2023/10/05 08:41:42;;;;;;;8.10;4.93;;;18.50;99.90;;;;;;4973026;28;21035;-74
2023/10/05 08:44:27;;;;;;;7.37;4.57;;;18.80;99.90;;;;;;4981167;28;20434;-74
2023/10/05 08:46:56;;;;;;;10.13;3.80;;;19.50;99.90;;;;;;4967970;28;20459;-74
2023/10/05 08:49:23;;;;;;;8.30;4.90;;;19.90;99.90;;;;;;4972739;28;20547;-74
2023/10/05 08:51:50;;;;;;;8.10;4.67;;;20.30;99.90;;;;;;4976401;28;20975;-75
2023/10/05 08:54:16;;;;;;;9.73;5.03;;;21.00;99.90;;;;;;4982415;28;20514;-74
2023/10/05 08:56:47;;;;;;;6.30;4.07;;;21.40;98.00;;;;;;4982876;28;21027;-74
2023/10/05 08:59:16;;;;;;;8.07;4.30;;;22.30;96.70;;;;;;4975961;28;20562;-73
2023/10/05 09:01:42;;;;;;;8.80;4.53;;;23.10;93.70;;;;;;4976001;28;20434;-74
2023/10/05 09:06:47;;;;;;;10.50;5.00;;;24.60;84.60;;;;;;4972306;28;20490;-74
2023/10/05 09:09:39;;;;;;;10.03;5.40;;;24.90;77.10;;;;;;4974085;28;20467;-74
2023/10/05 09:12:32;;;;;;;13.63;4.60;;;24.40;77.50;;;;;;4978812;28;20470;-74
2023/10/05 09:18:38;;;;;;;7.30;4.77;;;23.60;76.30;;;;;;4979840;28;20479;-73
2023/10/05 09:20:49;;;;;;;11.33;5.27;;;23.30;79.00;;;;;;4964997;28;20431;-74
2023/10/05 09:23:20;;;;;;;8.77;5.50;;;22.40;82.30;;;;;;4970006;28;20440;-74
2023/10/05 09:25:46;;;;;;;12.13;5.00;;;22.30;84.30;;;;;;4975869;28;20448;-74
2023/10/05 09:28:28;;;;;;;10.40;4.87;;;22.20;83.80;;;;;;4971404;28;20501;-74
2023/10/05 09:30:59;;;;;;;10.37;5.30;;;22.10;84.30;;;;;;4974576;28;20172;-74
2023/10/05 09:33:27;;;;;;;7.50;5.07;;;22.10;84.10;;;;;;4973474;28;20804;-74
2023/10/05 09:35:56;;;;;;;8.50;5.70;;;21.70;85.20;;;;;;4979649;28;20451;-74
2023/10/05 09:38:23;;;;;;;8.50;4.70;;;21.70;86.10;;;;;;4972673;28;20467;-75
2023/10/05 09:40:53;;;;;;;6.90;4.87;;;21.60;84.10;;;;;;4973237;28;20443;-73
2023/10/05 09:43:21;;;;;;;8.03;5.83;;;21.70;85.30;;;;;;4973248;28;20439;-74
2023/10/05 09:45:54;;;;;;;10.63;5.57;;;22.70;82.70;;;;;;4972623;28;20491;-74
2023/10/05 09:48:21;;;;;;;9.27;5.57;;;23.70;76.60;;;;;;4969333;28;20497;-75
2023/10/05 09:50:47;;;;;;;9.83;5.73;;;23.30;71.50;;;;;;4973116;28;20439;-74
2023/10/05 09:53:17;;;;;;;12.00;5.67;;;23.50;73.90;;;;;;4972237;28;20527;-74
2023/10/05 09:55:49;;;;;;;8.40;5.83;;;23.90;71.10;;;;;;4974183;28;20467;-73
2023/10/05 09:58:18;;;;;;;9.57;5.17;;;24.60;67.70;;;;;;4977614;28;20436;-74
2023/10/05 10:03:10;;;;;;;7.70;5.37;;;25.70;64.10;;;;;;4976964;28;20468;-74
2023/10/05 10:05:42;;;;;;;9.03;5.53;;;26.30;61.60;;;;;;4972503;28;20184;-74
2023/10/05 10:08:23;;;;;;;9.47;5.30;;;26.50;59.30;;;;;;4973871;28;20952;-74
2023/10/05 10:11:01;;;;;;;9.77;5.57;;;26.90;57.80;;;;;;4972667;28;20434;-74
2023/10/05 10:13:37;;;;;;;8.30;5.37;;;26.80;57.00;;;;;;4970956;28;20829;-73
2023/10/05 10:16:23;;;;;;;8.13;4.03;;;26.10;56.90;;;;;;4973948;28;20570;-75
2023/10/05 10:19:04;;;;;;;6.87;4.13;;;26.70;55.70;;;;;;4974329;28;20488;-75
2023/10/05 10:21:33;;;;;;;8.63;5.20;;;27.40;54.20;;;;;;4975197;28;20517;-75
2023/10/05 10:24:12;;;;;;;9.40;4.93;;;27.70;53.30;;;;;;4993440;28;20406;-75
2023/10/05 10:26:53;;;;;;;8.27;4.90;;;27.80;52.00;;;;;;4993448;28;20485;-75
2023/10/05 10:29:22;;;;;;;6.37;4.07;;;27.50;52.00;;;;;;4993620;28;20954;-75
2023/10/05 10:32:18;;;;;;;7.97;4.20;;;28.10;52.10;;;;;;4985084;28;20796;-75
2023/10/05 10:34:52;;;;;;;7.00;4.40;;;29.30;49.00;;;;;;4954580;28;20421;-75
2023/10/05 10:37:44;;;;;;;6.70;4.30;;;30.20;46.80;;;;;;4954497;28;20443;-75
2023/10/05 10:40:26;;;;;;;7.37;4.83;;;31.40;43.50;;;;;;4954472;28;20464;-75
2023/10/05 10:45:41;;;;;;;10.23;5.87;;;30.00;43.20;;;;;;4992307;28;20469;-75
2023/10/05 10:48:12;;;;;;;7.73;5.70;;;30.40;42.90;;;;;;4993014;28;20418;-74
2023/10/05 10:50:39;;;;;;;9.93;5.77;;;29.20;43.40;;;;;;4971523;28;20922;-76
2023/10/05 10:53:16;;;;;;;6.67;4.30;;;27.90;45.50;;;;;;4972185;28;20453;-76
2023/10/05 10:55:51;;;;;;;5.90;4.40;;;27.30;45.50;;;;;;4981395;28;20826;-76
2023/10/05 10:58:25;;;;;;;8.60;4.37;;;26.80;46.70;;;;;;4973404;28;20415;-76
2023/10/05 11:01:28;;;;;;;8.23;4.10;;;27.30;46.30;;;;;;4973424;28;20418;-76
2023/10/05 11:04:04;;;;;;;8.30;4.57;;;27.60;45.90;;;;;;4954066;28;20430;-75
2023/10/05 11:06:29;;;;;;;6.50;4.30;;;27.40;46.30;;;;;;4960195;28;20451;-74
2023/10/05 11:08:59;;;;;;;6.50;4.60;;;25.40;49.20;;;;;;4979185;28;20970;-76
2023/10/05 11:11:25;;;;;;;6.73;5.30;;;25.10;50.20;;;;;;4984557;28;20540;-75
2023/10/05 11:14:05;;;;;;;7.83;5.37;;;24.70;51.50;;;;;;4992428;28;20480;-75
2023/10/05 11:16:43;;;;;;;6.30;4.27;;;24.30;52.50;;;;;;4993032;28;20497;-75
2023/10/05 11:19:13;;;;;;;10.40;5.60;;;23.70;54.00;;;;;;4972860;28;20455;-73
2023/10/05 11:21:45;;;;;;;9.37;4.47;;;23.10;55.40;;;;;;4972459;28;20435;-73
2023/10/05 11:24:15;;;;;;;7.23;4.30;;;22.80;56.60;;;;;;4973963;28;20565;-73
2023/10/05 11:27:05;;;;;;;10.27;4.67;;;22.80;57.00;;;;;;4974657;28;20477;-72
2023/10/05 11:29:42;;;;;;;5.50;3.70;;;22.60;57.80;;;;;;4970259;28;20514;-74
2023/10/05 11:32:15;;;;;;;5.47;4.37;;;22.50;58.60;;;;;;4977141;28;20430;-74
2023/10/05 11:34:43;;;;;;;5.80;4.30;;;22.50;59.50;;;;;;4973585;28;20439;-73
2023/10/05 11:37:16;;;;;;;7.37;4.93;;;22.30;59.80;;;;;;4968769;28;20459;-74
2023/10/05 11:39:46;;;;;;;12.23;4.70;;;22.40;59.40;;;;;;4981169;28;20474;-73
2023/10/05 11:42:12;;;;;;;6.10;4.47;;;21.60;61.90;;;;;;4969105;28;20952;-73
2023/10/05 11:44:42;;;;;;;6.93;4.17;;;21.40;62.50;;;;;;4968203;28;20486;-73
2023/10/05 11:47:07;;;;;;;7.97;4.90;;;21.40;63.60;;;;;;4971789;28;20204;-74
2023/10/05 11:49:33;;;;;;;6.80;4.73;;;21.30;63.30;;;;;;4971148;28;20526;-74
2023/10/05 11:52:00;;;;;;;7.33;4.80;;;21.30;63.30;;;;;;4970596;28;20596;-74
2023/10/05 11:54:29;;;;;;;6.93;4.10;;;21.20;63.10;;;;;;4969320;28;20446;-73
2023/10/05 11:56:55;;;;;;;5.33;4.40;;;20.80;65.60;;;;;;4970220;28;20483;-74
2023/10/05 11:59:32;;;;;;;11.27;4.97;;;20.70;67.90;;;;;;4978517;28;20959;-73
2023/10/05 12:01:57;;;;;;;9.10;4.40;;;20.50;70.00;;;;;;4975934;28;20544;-73
2023/10/05 12:04:24;;;;;;;5.77;3.57;;;20.80;69.90;;;;;;4970458;28;20522;-74
2023/10/05 12:06:59;;;;;;;7.83;4.33;;;21.00;68.50;;;;;;4967737;28;20455;-73
2023/10/05 12:09:34;;;;;;;5.17;4.03;;;21.50;66.20;;;;;;4973127;28;20438;-74
2023/10/05 12:12:02;;;;;;;10.57;4.67;;;22.00;63.60;;;;;;4972402;28;20505;-74
2023/10/05 12:14:28;;;;;;;8.07;4.93;;;21.90;64.70;;;;;;4976863;28;20443;-74
2023/10/05 12:16:59;;;;;;;7.23;4.00;;;22.10;64.10;;;;;;4981039;28;20474;-74
2023/10/05 12:19:29;;;;;;;7.27;4.50;;;22.40;63.00;;;;;;4979544;28;20204;-74
2023/10/05 12:21:56;;;;;;;11.33;4.63;;;22.40;62.70;;;;;;4974095;28;20522;-74
2023/10/05 12:24:22;;;;;;;8.03;3.60;;;22.30;63.90;;;;;;4971155;28;20434;-74
2023/10/05 12:26:50;;;;;;;5.87;4.03;;;22.10;63.00;;;;;;4974795;28;20485;-74
2023/10/05 12:29:16;;;;;;;12.10;4.70;;;21.50;65.20;;;;;;4972818;28;20439;-75
2023/10/05 12:31:43;;;;;;;11.90;4.77;;;21.50;65.40;;;;;;4972378;28;20445;-74
2023/10/05 12:34:14;;;;;;;9.40;4.07;;;21.30;66.20;;;;;;4976384;28;20190;-74
2023/10/05 12:36:49;;;;;;;11.20;4.17;;;21.50;66.40;;;;;;4975237;28;20460;-74
2023/10/05 12:39:18;;;;;;;8.57;5.07;;;21.70;66.40;;;;;;4975546;28;20454;-74
2023/10/05 12:41:46;;;;;;;6.07;4.13;;;21.60;65.60;;;;;;4981864;28;20537;-74
2023/10/05 12:44:15;;;;;;;7.50;4.00;;;21.50;65.20;;;;;;4971886;28;20774;-74
2023/10/05 12:46:47;;;;;;;5.83;4.00;;;21.10;66.10;;;;;;4975629;28;20844;-74
2023/10/05 12:49:16;;;;;;;6.50;4.60;;;20.70;68.50;;;;;;4973358;28;20436;-74
2023/10/05 12:51:44;;;;;;;5.80;3.63;;;20.60;68.60;;;;;;4972858;28;20443;-74
2023/10/05 12:54:18;;;;;;;8.67;3.83;;;20.60;69.00;;;;;;4973749;28;20435;-73
2023/10/05 12:56:49;;;;;;;5.77;4.17;;;20.20;70.50;;;;;;4970904;28;20463;-73
2023/10/05 12:59:15;;;;;;;6.33;4.20;;;20.10;71.00;;;;;;4971072;28;20459;-73
2023/10/05 13:01:41;;;;;;;8.17;4.63;;;19.70;71.80;;;;;;4973238;28;20527;-73
2023/10/05 13:04:11;;;;;;;6.90;4.93;;;19.40;75.00;;;;;;4979406;28;20781;-73
2023/10/05 13:06:38;;;;;;;10.23;8.10;;;19.40;76.90;;;;;;4983571;28;20533;-74
2023/10/05 13:09:11;;;;;;;9.23;6.40;;;19.30;77.50;;;;;;4976307;28;20444;-73
2023/10/05 13:11:37;;;;;;;8.70;5.40;;;19.30;78.20;;;;;;4974541;28;20451;-72
2023/10/05 13:14:08;;;;;;;8.70;5.10;;;19.20;77.30;;;;;;4977322;28;20777;-73
2023/10/05 13:16:35;;;;;;;7.67;5.20;;;18.90;79.80;;;;;;4979067;28;20479;-72
2023/10/05 13:19:01;;;;;;;7.00;4.90;;;18.90;79.60;;;;;;4971093;28;20466;-73
2023/10/05 13:21:28;;;;;;;6.60;4.20;;;18.90;78.80;;;;;;4983664;28;20435;-72